Airfield :
LOGIN :

Register | Disclaimer

   EN    FR    IT 

 










Legend :    VFR   Marginal VFR   IFR   Intensive IFR   Very Intensive IFR
Visi :
Ceiling :
>= 8 km
>= 3000ft
5 to 8 km
1000 to 3000 ft
1500m to 5 km
500 to 1000 ft
800 to 1500m
200 to 500 ft
< 800m
< 200 ft
Symbols :   Thunderstorms  Fog  Heavy snow  Heavy precipitations  Wind > 20 kt
SIGMETs :     Misc.  Thunderstorms  Icing  Turbulence  Mountain Waves  Volcanic Ashes






- Airport Elevation : 158 ft
- IATA code : QAR


EHDL - Deelen Airbase

CURRENT METAR :
  • 281255Z AUTO 20013KT 130V250 9999 FEW094 OVC100 06/01 Q1013 BLU

EXPIRED METARs :
  • 281225Z AUTO 21011KT 150V260 9999 OVC100 06/01 Q1014 BLU
  • 281155Z AUTO 20010KT 160V250 9999 OVC110 06/02 Q1014 BLU
  • 281125Z AUTO 21010KT 150V270 9999 OVC110 06/02 Q1015 BLU
  • 281055Z AUTO 22011KT 150V260 9999 OVC120 05/02 Q1015 BLU
  • 281025Z AUTO 21010KT 170V240 9999 OVC110 04/02 Q1015 BLU

Expired Forecast.



MET'MAP, your aeronautical weather chart ! - Copyright ORBIFLY December 2007 - Disclaimer

ORBIFLY MET'MAP TEAM :

Programming & Development : Alexandra Zaïnal
Concept & original design : Baudouin d'Aumeries
Assistance for programming : Marc-Olivier Méhu
Technical & hardware support : Manuel Goepfert

Contact : metmap@orbifly.com




SOURCES & CREDITS :

   NOAA